Time;durP1;ratioP1;P1;durP2;ratioP2;P2;SDS_P1;SDS_P2;PMS_P1;PMS_P2;Temp;Humidity;BMP_temperature;BMP_pressure;BME280_temperature;BME280_humidity;BME280_pressure;Samples;Min_cycle;Max_cycle;Signal;HPM_P1;HPM_P2
2021/10/24 00:01:08;;;;;;;20.40;9.25;;;;;;;6.22;68.73;99522.09;5053879;28;20068;-50
2021/10/24 00:03:33;;;;;;;17.85;10.25;;;;;;;6.11;68.48;99530.97;5035950;28;20032;-50
2021/10/24 00:06:00;;;;;;;14.05;8.55;;;;;;;6.06;68.88;99520.19;5053759;28;20029;-50
2021/10/24 00:08:25;;;;;;;14.52;9.23;;;;;;;6.15;68.84;99527.09;5053792;28;20124;-50
2021/10/24 00:10:51;;;;;;;14.43;8.43;;;;;;;6.06;68.59;99515.81;5053594;28;20103;-51
2021/10/24 00:13:17;;;;;;;16.48;8.18;;;;;;;6.10;68.21;99524.13;5053674;28;20505;-50
2021/10/24 00:15:43;;;;;;;15.13;7.53;;;;;;;6.11;68.11;99521.38;5053605;28;20569;-50
2021/10/24 00:18:09;;;;;;;16.83;8.77;;;;;;;6.10;68.63;99524.13;5035938;28;20079;-49
2021/10/24 00:20:36;;;;;;;18.23;8.80;;;;;;;6.15;68.58;99519.28;5035647;28;20403;-50
2021/10/24 00:23:02;;;;;;;14.00;8.40;;;;;;;6.12;67.95;99527.41;5053507;28;20029;-50
2021/10/24 00:25:28;;;;;;;25.30;9.18;;;;;;;6.00;67.74;99525.03;5053450;28;20020;-51
2021/10/24 00:27:54;;;;;;;15.45;8.65;;;;;;;5.86;68.55;99522.94;5035478;28;20021;-50
2021/10/24 00:30:23;;;;;;;15.77;8.20;;;;;;;5.91;68.37;99523.28;5053245;28;20053;-50
2021/10/24 00:32:49;;;;;;;11.50;8.38;;;;;;;5.93;68.34;99516.13;5035354;28;20055;-50
2021/10/24 00:35:14;;;;;;;17.23;8.95;;;;;;;5.91;68.50;99517.25;5053244;28;20036;-50
2021/10/24 00:37:40;;;;;;;12.68;7.68;;;;;;;5.90;68.68;99516.44;5053202;28;20364;-50
2021/10/24 00:40:06;;;;;;;13.10;8.05;;;;;;;5.94;68.46;99520.38;5053147;28;20495;-50
2021/10/24 00:42:32;;;;;;;15.07;9.23;;;;;;;6.00;68.66;99526.81;5053131;28;20021;-50
2021/10/24 00:44:58;;;;;;;14.45;8.07;;;;;;;6.01;67.71;99525.84;5053048;28;20075;-50
2021/10/24 00:47:24;;;;;;;17.73;8.27;;;;;;;6.03;67.96;99523.09;5053049;28;20035;-50
2021/10/24 00:49:50;;;;;;;12.50;8.23;;;;;;;6.00;67.45;99524.22;5052219;28;20029;-51
2021/10/24 00:52:17;;;;;;;10.73;7.57;;;;;;;6.03;68.10;99530.91;5052557;28;20045;-50
2021/10/24 00:54:44;;;;;;;15.65;9.15;;;;;;;6.04;67.67;99524.72;5034965;28;20025;-50
2021/10/24 00:57:10;;;;;;;15.00;8.50;;;;;;;5.94;67.96;99524.78;5052859;28;20048;-50
2021/10/24 00:59:38;;;;;;;14.73;8.75;;;;;;;5.64;68.62;99518.97;5052731;28;20056;-50
2021/10/24 01:02:04;;;;;;;17.90;9.65;;;;;;;5.41;69.51;99521.16;5034773;28;20395;-50
2021/10/24 01:04:30;;;;;;;16.10;9.55;;;;;;;5.32;70.25;99517.66;5034932;28;20079;-51
2021/10/24 01:07:02;;;;;;;16.92;9.77;;;;;;;5.26;70.13;99514.84;5052552;28;20035;-50
2021/10/24 01:09:31;;;;;;;15.55;8.60;;;;;;;5.18;71.06;99520.75;5052565;28;20442;-49
2021/10/24 01:11:58;;;;;;;13.73;8.82;;;;;;;5.16;70.96;99520.91;5034576;28;20021;-51
2021/10/24 01:14:24;;;;;;;17.08;9.18;;;;;;;5.13;71.19;99528.16;5052503;28;20033;-50
2021/10/24 01:16:51;;;;;;;15.45;8.80;;;;;;;5.11;71.32;99510.13;5052422;28;20066;-51
2021/10/24 01:19:19;;;;;;;15.20;8.50;;;;;;;5.17;71.05;99508.69;5052372;28;20021;-50
2021/10/24 01:21:45;;;;;;;13.05;8.18;;;;;;;5.11;71.13;99512.72;5034495;28;20025;-50
2021/10/24 01:24:12;;;;;;;16.70;9.40;;;;;;;5.04;70.98;99505.63;5034402;28;20132;-50
2021/10/24 01:26:40;;;;;;;15.13;8.38;;;;;;;5.14;70.99;99496.00;5052246;28;20021;-50
2021/10/24 01:29:08;;;;;;;17.48;10.35;;;;;;;5.22;71.11;99492.66;5052493;28;20510;-50
2021/10/24 01:31:35;;;;;;;19.08;8.80;;;;;;;5.33;70.45;99485.47;5050777;28;20575;-50
2021/10/24 01:34:01;;;;;;;14.05;8.85;;;;;;;5.31;70.29;99491.78;5034283;28;20017;-50
2021/10/24 01:36:27;;;;;;;17.80;8.63;;;;;;;5.19;70.85;99494.59;5034179;28;20037;-50
2021/10/24 01:38:53;;;;;;;17.17;8.85;;;;;;;5.12;71.10;99495.31;5052099;28;20021;-49
2021/10/24 01:41:23;;;;;;;13.27;8.45;;;;;;;5.06;71.22;99486.31;5052080;28;20035;-51
2021/10/24 01:43:49;;;;;;;12.02;8.45;;;;;;;5.06;71.14;99480.28;5052259;28;20028;-50
2021/10/24 01:46:15;;;;;;;14.65;8.73;;;;;;;4.95;71.26;99483.88;5034088;28;20375;-50
2021/10/24 01:48:41;;;;;;;13.23;8.25;;;;;;;4.95;71.52;99486.47;5051925;28;20021;-50
2021/10/24 01:51:07;;;;;;;16.35;8.82;;;;;;;4.96;71.35;99482.94;5030389;28;20045;-50
2021/10/24 01:53:36;;;;;;;12.75;8.60;;;;;;;4.96;71.15;99475.13;5047248;28;20056;-50
2021/10/24 01:56:02;;;;;;;13.30;8.05;;;;;;;4.97;71.29;99477.59;5030635;28;20049;-50
2021/10/24 01:58:28;;;;;;;15.05;8.93;;;;;;;4.95;71.25;99471.72;5031964;28;20068;-51
2021/10/24 02:00:58;;;;;;;14.10;7.50;;;;;;;5.06;71.29;99472.47;5047139;28;20033;-50
2021/10/24 02:03:23;;;;;;;15.25;8.60;;;;;;;5.18;70.96;99473.91;5047120;28;20024;-49
2021/10/24 02:05:50;;;;;;;16.75;9.45;;;;;;;5.16;70.69;99462.84;5047073;28;20033;-50
2021/10/24 02:08:16;;;;;;;12.48;7.60;;;;;;;5.05;70.69;99457.81;5047091;28;20017;-51
2021/10/24 02:10:43;;;;;;;13.40;7.32;;;;;;;5.36;71.32;99463.53;5031679;28;20025;-51
2021/10/24 02:13:10;;;;;;;14.65;7.95;;;;;;;5.34;70.08;99461.06;5031739;28;20021;-50
2021/10/24 02:15:36;;;;;;;14.23;7.38;;;;;;;5.19;70.77;99465.97;5031706;28;20036;-50
2021/10/24 02:18:03;;;;;;;13.55;7.68;;;;;;;5.07;70.78;99458.50;5031816;28;20017;-50
2021/10/24 02:20:30;;;;;;;15.63;8.63;;;;;;;4.98;71.38;99465.41;5031708;28;20029;-50
2021/10/24 02:22:56;;;;;;;11.35;7.30;;;;;;;4.96;71.34;99456.94;5031737;28;20076;-50
2021/10/24 02:25:22;;;;;;;10.23;7.72;;;;;;;5.02;71.38;99456.34;5031692;28;20395;-50
2021/10/24 02:27:48;;;;;;;12.18;6.85;;;;;;;5.30;71.67;99457.13;5031682;28;20527;-50
2021/10/24 02:30:14;;;;;;;13.90;7.05;;;;;;;5.66;70.72;99459.75;5031617;28;20051;-50
2021/10/24 02:32:41;;;;;;;15.20;7.85;;;;;;;5.68;70.10;99451.78;5031609;28;20026;-49
2021/10/24 02:35:09;;;;;;;10.65;6.40;;;;;;;5.67;70.06;99450.97;5031590;28;20100;-50
2021/10/24 02:37:34;;;;;;;12.68;7.15;;;;;;;5.67;69.69;99452.75;5030256;28;20496;-50
2021/10/24 02:40:00;;;;;;;11.05;7.35;;;;;;;5.81;69.99;99452.22;5031588;28;20026;-50
2021/10/24 02:42:26;;;;;;;11.88;7.03;;;;;;;5.98;69.06;99450.59;5030185;28;20030;-50
2021/10/24 02:44:52;;;;;;;12.93;6.88;;;;;;;6.11;69.17;99450.19;5031473;28;20438;-50
2021/10/24 02:47:20;;;;;;;19.00;6.93;;;;;;;6.21;68.25;99445.69;5031452;28;20030;-50
2021/10/24 02:49:46;;;;;;;16.13;6.22;;;;;;;6.27;67.72;99444.28;5031316;28;20057;-50
2021/10/24 02:52:12;;;;;;;10.07;6.40;;;;;;;6.18;67.63;99448.63;5046885;28;20621;-50
2021/10/24 02:54:37;;;;;;;10.65;6.53;;;;;;;6.20;67.44;99439.66;5051264;28;20021;-50
2021/10/24 02:57:05;;;;;;;10.80;6.93;;;;;;;6.25;67.51;99446.22;5051197;28;20025;-50
2021/10/24 02:59:31;;;;;;;15.10;7.85;;;;;;;6.14;67.12;99445.50;5051218;28;20028;-49
2021/10/24 03:01:58;;;;;;;20.60;8.48;;;;;;;6.15;67.96;99452.34;5051192;28;20155;-50
2021/10/24 03:04:24;;;;;;;19.20;8.18;;;;;;;6.21;67.43;99443.09;5051216;28;20021;-50
2021/10/24 03:06:49;;;;;;;13.45;7.05;;;;;;;6.19;67.13;99445.03;5051134;28;20028;-50
2021/10/24 03:09:16;;;;;;;11.90;7.55;;;;;;;6.22;67.01;99444.75;5051187;28;20028;-50
2021/10/24 03:11:41;;;;;;;10.95;6.85;;;;;;;6.03;66.97;99452.75;5050951;28;20083;-51
2021/10/24 03:14:07;;;;;;;11.68;7.97;;;;;;;5.91;67.11;99449.53;5052808;28;20021;-49
2021/10/24 03:16:34;;;;;;;12.05;7.20;;;;;;;5.82;67.53;99448.66;5054773;28;20494;-50
2021/10/24 03:19:04;;;;;;;14.93;7.55;;;;;;;5.82;67.50;99447.84;5036854;28;20033;-50
2021/10/24 03:21:30;;;;;;;13.25;6.35;;;;;;;5.88;67.97;99444.63;5036745;28;20104;-50
2021/10/24 03:23:59;;;;;;;14.02;7.50;;;;;;;6.01;67.22;99445.06;5036699;28;20116;-50
2021/10/24 03:26:25;;;;;;;24.65;8.07;;;;;;;6.00;67.11;99443.44;5054584;28;20035;-50
2021/10/24 03:28:51;;;;;;;33.30;9.43;;;;;;;5.96;66.87;99444.72;5054480;28;20039;-50
2021/10/24 03:31:16;;;;;;;29.45;7.72;;;;;;;6.03;67.19;99445.75;5036432;28;20021;-49
2021/10/24 03:33:42;;;;;;;17.30;8.20;;;;;;;5.98;67.16;99448.00;5054387;28;20025;-50
2021/10/24 03:36:08;;;;;;;10.75;6.97;;;;;;;5.93;67.18;99447.59;5036505;28;20040;-50
2021/10/24 03:38:34;;;;;;;11.95;7.30;;;;;;;6.17;67.44;99439.16;5054357;28;20113;-50
2021/10/24 03:40:59;;;;;;;15.23;7.93;;;;;;;6.44;67.01;99435.59;5036363;28;20032;-50
2021/10/24 03:43:26;;;;;;;20.08;8.10;;;;;;;6.50;66.43;99440.19;5036409;28;20025;-50
2021/10/24 03:45:52;;;;;;;13.65;6.95;;;;;;;6.41;66.08;99443.69;5054226;28;20060;-50
2021/10/24 03:48:17;;;;;;;13.20;7.15;;;;;;;6.29;66.24;99439.72;5054187;28;20075;-50
2021/10/24 03:50:43;;;;;;;11.80;7.78;;;;;;;6.37;66.27;99439.75;5053793;28;20049;-50
2021/10/24 03:53:09;;;;;;;16.42;7.97;;;;;;;6.34;66.30;99443.50;5054116;28;20021;-50
2021/10/24 03:55:35;;;;;;;14.75;7.07;;;;;;;6.28;65.95;99438.06;5054007;28;20021;-50
2021/10/24 03:58:01;;;;;;;50.55;21.55;;;;;;;6.22;66.02;99443.91;5054051;28;20068;-50
2021/10/24 04:00:27;;;;;;;1999.90;788.80;;;;;;;6.48;70.06;99434.28;5053862;28;20510;-50
2021/10/24 04:02:58;;;;;;;1999.90;746.00;;;;;;;7.36;75.87;99444.38;5054136;28;20108;-50
2021/10/24 04:05:25;;;;;;;1999.90;693.42;;;;;;;8.33;77.54;99430.59;5053778;28;20518;-50
2021/10/24 04:07:52;;;;;;;1999.90;953.70;;;;;;;8.92;77.71;99428.47;5052474;28;20025;-50
2021/10/24 04:10:19;;;;;;;1999.90;544.63;;;;;;;9.02;76.96;99430.06;5035713;28;20044;-50
2021/10/24 04:12:46;;;;;;;640.10;313.50;;;;;;;8.89;76.62;99430.63;5053701;28;20021;-50
2021/10/24 04:15:13;;;;;;;1999.90;781.08;;;;;;;8.73;77.12;99428.88;5053632;28;20394;-50
2021/10/24 04:17:39;;;;;;;760.85;429.67;;;;;;;8.62;76.97;99437.13;5053543;28;20032;-50
2021/10/24 04:20:10;;;;;;;660.38;373.48;;;;;;;8.68;77.05;99432.00;5053589;28;20406;-50
2021/10/24 04:22:36;;;;;;;1146.13;484.25;;;;;;;8.78;76.91;99429.19;5053761;28;20056;-50
2021/10/24 04:25:04;;;;;;;650.13;368.45;;;;;;;8.81;77.26;99436.69;5052285;28;20061;-50
2021/10/24 04:27:30;;;;;;;440.77;289.52;;;;;;;8.64;75.40;99430.72;5053402;28;20049;-50
2021/10/24 04:29:56;;;;;;;347.23;227.05;;;;;;;8.15;72.74;99444.72;5053280;28;20066;-50
2021/10/24 04:32:21;;;;;;;381.75;242.27;;;;;;;7.76;74.72;99445.38;5035295;28;20136;-50
2021/10/24 04:34:47;;;;;;;1041.97;318.95;;;;;;;7.68;76.64;99449.78;5053327;28;20029;-50
2021/10/24 04:37:13;;;;;;;240.90;116.40;;;;;;;7.78;76.94;99453.06;5053457;28;20032;-50
2021/10/24 04:39:39;;;;;;;138.32;86.93;;;;;;;7.84;77.25;99446.38;5051898;28;20075;-51
2021/10/24 04:42:05;;;;;;;78.88;44.38;;;;;;;7.89;76.34;99437.06;5035261;28;20029;-50
2021/10/24 04:44:31;;;;;;;137.13;65.68;;;;;;;7.68;74.92;99447.19;5053064;28;20537;-50
2021/10/24 04:46:57;;;;;;;261.58;136.95;;;;;;;7.48;75.72;99446.66;5035126;28;20044;-50
2021/10/24 04:49:22;;;;;;;248.30;127.15;;;;;;;7.48;76.44;99449.28;5052978;28;20487;-50
2021/10/24 04:51:48;;;;;;;202.20;79.90;;;;;;;7.78;77.41;99447.84;5034701;28;20077;-50
2021/10/24 04:54:14;;;;;;;469.63;266.10;;;;;;;8.00;77.19;99451.59;5034970;28;20028;-50
2021/10/24 04:56:40;;;;;;;396.77;213.18;;;;;;;8.25;77.27;99448.94;5052801;28;20486;-50
2021/10/24 04:59:06;;;;;;;230.18;150.55;;;;;;;8.30;76.19;99446.66;5051498;28;20061;-50
2021/10/24 05:01:31;;;;;;;129.38;71.60;;;;;;;8.26;75.01;99453.19;5052744;28;20031;-50
2021/10/24 05:03:57;;;;;;;43.00;31.10;;;;;;;8.23;74.16;99463.97;5034818;28;20013;-50
2021/10/24 05:06:23;;;;;;;53.70;35.25;;;;;;;8.15;72.48;99460.41;5034652;28;20027;-50
2021/10/24 05:08:48;;;;;;;171.73;75.35;;;;;;;8.09;73.01;99457.59;5052609;28;20039;-50
2021/10/24 05:11:14;;;;;;;214.65;70.13;;;;;;;7.96;72.70;99463.34;5052461;28;20112;-50
2021/10/24 05:13:40;;;;;;;34.15;22.27;;;;;;;7.90;72.44;99458.78;5051227;28;20025;-50
2021/10/24 05:16:06;;;;;;;34.28;17.63;;;;;;;7.71;71.63;99462.53;5052489;28;20111;-50
2021/10/24 05:18:32;;;;;;;24.77;13.15;;;;;;;7.60;70.91;99461.84;5051144;28;20490;-50
2021/10/24 05:20:58;;;;;;;25.60;14.68;;;;;;;7.42;70.94;99466.41;5052415;28;20437;-50
2021/10/24 05:23:24;;;;;;;21.33;13.05;;;;;;;7.25;70.36;99467.38;5052392;28;20021;-51
2021/10/24 05:25:50;;;;;;;28.67;13.13;;;;;;;7.16;71.32;99464.75;5052331;28;20036;-50
2021/10/24 05:28:16;;;;;;;14.07;9.85;;;;;;;7.14;71.31;99461.47;5052293;28;20021;-51
2021/10/24 05:30:42;;;;;;;16.75;10.75;;;;;;;7.11;70.21;99460.97;5052161;28;20513;-50
2021/10/24 05:33:08;;;;;;;17.15;9.70;;;;;;;6.93;69.97;99454.03;5052157;28;20025;-50
2021/10/24 05:35:33;;;;;;;11.07;7.90;;;;;;;6.96;70.50;99461.56;5052151;28;20083;-50
2021/10/24 05:37:59;;;;;;;21.88;11.57;;;;;;;6.98;70.66;99459.63;5051811;28;20017;-50
2021/10/24 05:40:24;;;;;;;13.95;6.97;;;;;;;6.94;69.53;99460.06;5034255;28;20111;-50
2021/10/24 05:42:50;;;;;;;25.20;12.45;;;;;;;6.87;69.84;99465.13;5052107;28;20032;-50
2021/10/24 05:45:16;;;;;;;22.60;9.18;;;;;;;6.94;70.26;99465.28;5034150;28;20480;-51
2021/10/24 05:47:42;;;;;;;18.33;9.52;;;;;;;6.93;69.44;99464.47;5051989;28;20032;-51
2021/10/24 05:50:08;;;;;;;17.73;9.68;;;;;;;6.90;69.70;99463.97;5051841;28;20037;-50
2021/10/24 05:52:34;;;;;;;29.95;12.40;;;;;;;6.77;69.59;99464.41;5030536;28;20049;-49
2021/10/24 05:54:59;;;;;;;59.40;26.13;;;;;;;6.68;69.51;99462.72;5030661;28;20028;-50
2021/10/24 05:57:25;;;;;;;67.03;26.90;;;;;;;6.66;70.02;99468.13;5032244;28;20036;-50
2021/10/24 05:59:51;;;;;;;157.50;57.33;;;;;;;6.70;70.27;99463.41;5031925;28;20104;-50
2021/10/24 06:02:16;;;;;;;66.05;25.38;;;;;;;6.77;69.87;99469.63;5031871;28;20064;-51
2021/10/24 06:04:42;;;;;;;131.82;46.92;;;;;;;6.70;69.20;99466.00;5031867;28;20018;-50
2021/10/24 06:07:09;;;;;;;123.43;44.90;;;;;;;6.60;68.57;99472.16;5031745;28;20029;-50
2021/10/24 06:12:12;;;;;;;195.10;65.15;;;;;;;6.07;69.22;99473.13;5031744;28;20092;-50
2021/10/24 06:14:39;;;;;;;46.05;19.98;;;;;;;6.06;69.22;99479.31;5031810;28;20021;-50
2021/10/24 06:17:08;;;;;;;73.32;28.48;;;;;;;5.97;68.98;99488.03;5031649;28;20065;-50
2021/10/24 06:19:35;;;;;;;61.67;24.83;;;;;;;5.86;69.26;99489.06;5031681;28;20438;-50
2021/10/24 06:22:00;;;;;;;107.07;40.08;;;;;;;5.82;69.35;99489.53;5031647;28;20026;-51
2021/10/24 06:24:26;;;;;;;111.85;48.38;;;;;;;5.85;69.76;99500.44;5031662;28;20025;-50
2021/10/24 06:26:52;;;;;;;55.60;23.92;;;;;;;5.89;69.55;99491.34;5030414;28;20388;-50
2021/10/24 06:29:18;;;;;;;26.42;14.68;;;;;;;6.06;69.41;99500.16;5031590;28;20037;-49
2021/10/24 06:31:44;;;;;;;17.60;9.57;;;;;;;6.56;68.75;99499.53;5030201;28;20033;-49
2021/10/24 06:34:09;;;;;;;107.63;52.42;;;;;;;7.26;67.74;99506.34;5046849;28;20025;-50
2021/10/24 06:36:35;;;;;;;161.23;81.05;;;;;;;7.86;66.15;99502.72;5031512;28;20044;-50
2021/10/24 06:39:01;;;;;;;50.10;26.15;;;;;;;8.43;63.90;99501.06;5031429;28;20492;-50
2021/10/24 06:41:27;;;;;;;12.75;7.60;;;;;;;8.95;63.23;99503.22;5030270;28;20033;-50
2021/10/24 06:43:52;;;;;;;35.25;20.08;;;;;;;9.41;62.15;99505.97;5031506;28;20033;-50
2021/10/24 06:46:18;;;;;;;18.65;11.45;;;;;;;9.96;61.10;99510.19;5031433;28;20029;-50
2021/10/24 06:48:44;;;;;;;14.93;8.05;;;;;;;10.65;59.25;99500.59;5031324;28;20060;-50
2021/10/24 06:51:12;;;;;;;35.40;21.55;;;;;;;11.20;56.98;99512.41;5042164;28;20079;-50
2021/10/24 06:53:38;;;;;;;30.73;15.32;;;;;;;11.60;55.48;99512.84;5053900;28;20112;-50
2021/10/24 06:56:04;;;;;;;16.77;9.70;;;;;;;12.04;54.43;99508.47;5055112;28;20140;-50
2021/10/24 06:58:29;;;;;;;17.73;9.70;;;;;;;12.73;52.98;99507.72;5055385;28;20021;-51
2021/10/24 07:00:55;;;;;;;13.68;8.18;;;;;;;13.39;51.73;99507.25;5037168;28;20040;-52
2021/10/24 07:03:21;;;;;;;37.10;25.25;;;;;;;13.91;49.89;99507.56;5055006;28;20021;-51
2021/10/24 07:05:47;;;;;;;14.60;6.60;;;;;;;14.15;48.34;99508.78;5053697;28;20056;-51
2021/10/24 07:08:13;;;;;;;9.95;6.18;;;;;;;14.04;48.12;99501.47;5054980;28;20044;-51
2021/10/24 07:10:39;;;;;;;17.90;8.63;;;;;;;13.91;47.64;99508.38;5036929;28;20070;-51
2021/10/24 07:13:05;;;;;;;27.70;21.85;;;;;;;13.50;47.53;99511.13;5054934;28;20021;-51
2021/10/24 07:15:30;;;;;;;64.55;50.95;;;;;;;13.28;48.25;99519.16;5054872;28;20052;-51
2021/10/24 07:17:56;;;;;;;27.00;20.65;;;;;;;12.58;49.32;99515.75;5053499;28;20078;-51
2021/10/24 07:20:27;;;;;;;18.55;16.17;;;;;;;11.96;50.62;99512.03;5054783;28;20104;-51
2021/10/24 07:22:52;;;;;;;37.70;24.08;;;;;;;11.75;51.96;99518.06;5036845;28;20025;-51
2021/10/24 07:25:18;;;;;;;28.88;21.58;;;;;;;11.72;52.39;99510.56;5054656;28;20036;-51
2021/10/24 07:27:44;;;;;;;8.50;6.65;;;;;;;11.64;51.91;99519.38;5054498;28;20102;-51
2021/10/24 07:30:11;;;;;;;10.82;7.15;;;;;;;11.54;52.57;99522.28;5054482;28;20029;-50
2021/10/24 07:32:37;;;;;;;8.55;6.15;;;;;;;11.96;51.99;99519.91;5054563;28;20025;-51
2021/10/24 07:35:03;;;;;;;26.15;20.67;;;;;;;12.56;51.19;99523.03;5054466;28;20025;-51
2021/10/24 07:37:29;;;;;;;37.50;27.95;;;;;;;13.06;50.31;99520.25;5054358;28;20013;-51
2021/10/24 07:39:55;;;;;;;9.63;7.30;;;;;;;13.76;49.32;99521.75;5054394;28;20545;-51
2021/10/24 07:42:20;;;;;;;16.15;11.70;;;;;;;14.45;48.12;99511.00;5054301;28;20100;-51
2021/10/24 07:44:46;;;;;;;37.08;27.10;;;;;;;15.07;46.54;99509.69;5054246;28;20111;-51
2021/10/24 07:47:12;;;;;;;26.73;19.05;;;;;;;15.17;45.36;99509.22;5054202;28;20025;-52
2021/10/24 07:49:38;;;;;;;100.15;76.55;;;;;;;15.37;45.48;99515.25;5054064;28;20055;-51
2021/10/24 07:52:04;;;;;;;12.07;8.68;;;;;;;16.02;44.21;99513.44;5053806;28;20057;-51
2021/10/24 07:54:30;;;;;;;22.83;18.13;;;;;;;16.47;42.76;99514.06;5054078;28;20143;-51
2021/10/24 07:56:56;;;;;;;38.17;30.92;;;;;;;16.51;41.92;99511.81;5053992;28;20491;-51
2021/10/24 07:59:22;;;;;;;18.80;14.25;;;;;;;16.69;41.77;99514.47;5053705;28;20017;-50
2021/10/24 08:01:47;;;;;;;29.13;22.98;;;;;;;16.96;41.68;99508.91;5036011;28;20124;-51
2021/10/24 08:04:13;;;;;;;39.28;28.73;;;;;;;17.41;40.95;99505.13;5053875;28;20105;-51
2021/10/24 08:06:39;;;;;;;129.82;103.22;;;;;;;17.87;40.76;99509.78;5053799;28;20491;-50
2021/10/24 08:09:10;;;;;;;18.23;14.52;;;;;;;18.44;39.18;99505.81;5035954;28;20065;-51
2021/10/24 08:11:39;;;;;;;34.72;26.05;;;;;;;18.81;38.87;99494.91;5053751;28;20033;-49
2021/10/24 08:14:08;;;;;;;17.73;12.65;;;;;;;18.80;38.11;99499.44;5036062;28;20021;-49
2021/10/24 08:16:38;;;;;;;21.02;18.77;;;;;;;18.88;38.58;99503.59;5052352;28;20032;-48
2021/10/24 08:19:04;;;;;;;43.10;34.78;;;;;;;18.96;37.31;99498.72;5052353;28;20458;-50
2021/10/24 08:21:31;;;;;;;20.63;14.60;;;;;;;19.65;37.38;99505.03;5053857;28;20025;-48
2021/10/24 08:23:58;;;;;;;18.88;15.23;;;;;;;20.28;35.34;99505.81;5053517;28;20386;-49
2021/10/24 08:26:25;;;;;;;11.80;8.32;;;;;;;20.52;35.33;99504.59;5053429;28;20036;-49
2021/10/24 08:28:51;;;;;;;17.92;11.45;;;;;;;21.17;34.30;99512.09;5035550;28;20025;-50
2021/10/24 08:31:24;;;;;;;36.03;31.08;;;;;;;21.61;33.58;99506.72;5053519;28;20044;-49
2021/10/24 08:33:53;;;;;;;17.42;14.02;;;;;;;22.01;33.39;99511.59;5053425;28;20021;-49
2021/10/24 08:36:19;;;;;;;19.23;16.05;;;;;;;22.08;32.29;99509.53;5053287;28;20025;-49
2021/10/24 08:38:44;;;;;;;10.05;7.03;;;;;;;21.81;32.89;99514.13;5053542;28;20517;-49
2021/10/24 08:41:12;;;;;;;10.25;7.32;;;;;;;21.87;33.22;99510.41;5053421;28;20029;-49
2021/10/24 08:43:39;;;;;;;24.83;20.35;;;;;;;22.08;32.52;99514.88;5035258;28;20021;-49
2021/10/24 08:46:05;;;;;;;124.47;111.00;;;;;;;22.08;32.74;99514.09;5053119;28;20109;-49
2021/10/24 08:48:34;;;;;;;10.63;5.82;;;;;;;22.27;31.65;99507.28;5052985;28;20120;-50
2021/10/24 08:51:02;;;;;;;10.68;9.57;;;;;;;22.47;32.22;99503.13;5052683;28;20037;-48
2021/10/24 08:53:30;;;;;;;14.40;12.77;;;;;;;23.30;31.31;99508.63;5051638;28;20490;-47
2021/10/24 08:55:56;;;;;;;15.05;11.13;;;;;;;23.72;30.61;99496.91;5052908;28;20025;-49
2021/10/24 08:58:22;;;;;;;9.55;6.47;;;;;;;23.87;30.56;99492.66;5052897;28;20025;-48
2021/10/24 09:00:49;;;;;;;7.13;5.05;;;;;;;24.31;30.26;99492.88;5052810;28;20027;-49
2021/10/24 09:03:15;;;;;;;65.82;58.47;;;;;;;24.79;29.50;99499.75;5034819;28;20025;-49
2021/10/24 09:05:52;;;;;;;8.93;7.65;;;;;;;25.04;28.86;99496.16;5034815;28;20025;-48
2021/10/24 09:08:20;;;;;;;18.80;13.48;;;;;;;25.48;28.60;99492.72;5034854;28;20044;-48
2021/10/24 09:10:46;;;;;;;17.88;16.02;;;;;;;25.97;27.84;99494.53;5052139;28;20144;-49
2021/10/24 09:13:20;;;;;;;12.82;6.85;;;;;;;25.88;27.90;99491.63;5052373;28;20167;-49
2021/10/24 09:15:52;;;;;;;22.30;11.88;;;;;;;25.66;28.06;99488.56;5052642;28;20032;-49
2021/10/24 09:18:24;;;;;;;13.73;11.40;;;;;;;26.00;27.81;99491.28;5052408;28;20046;-50
2021/10/24 09:20:50;;;;;;;13.90;12.43;;;;;;;26.30;27.21;99492.88;5052474;28;20052;-48
2021/10/24 09:23:17;;;;;;;8.32;7.50;;;;;;;26.26;27.36;99493.72;5034461;28;20025;-49
2021/10/24 09:25:53;;;;;;;7.32;6.05;;;;;;;26.62;27.27;99488.81;5052383;28;20033;-49
2021/10/24 09:28:21;;;;;;;11.55;8.45;;;;;;;26.70;27.05;99493.56;5052394;28;20441;-49
2021/10/24 09:30:58;;;;;;;9.13;6.85;;;;;;;27.11;26.43;99484.16;5052159;28;20049;-49
2021/10/24 09:33:25;;;;;;;11.07;9.60;;;;;;;27.80;26.14;99484.47;5052258;28;20087;-49
2021/10/24 09:35:51;;;;;;;10.27;8.57;;;;;;;27.78;25.94;99492.06;5052404;28;20553;-49
2021/10/24 09:38:23;;;;;;;9.90;8.55;;;;;;;27.77;25.84;99489.66;5050820;28;20021;-49
2021/10/24 09:40:56;;;;;;;7.38;5.78;;;;;;;27.80;26.00;99486.38;5050980;28;20102;-49
2021/10/24 09:43:25;;;;;;;9.82;5.10;;;;;;;27.84;24.97;99492.78;5052085;28;20025;-49
2021/10/24 09:46:13;;;;;;;35.88;31.80;;;;;;;28.08;25.50;99490.00;5051993;28;20028;-49
2021/10/24 09:48:47;;;;;;;11.93;10.18;;;;;;;28.52;24.29;99485.97;5050712;28;20029;-49
2021/10/24 09:51:17;;;;;;;10.40;8.63;;;;;;;28.84;24.41;99485.06;5051595;28;20079;-49
2021/10/24 09:53:47;;;;;;;10.27;8.68;;;;;;;28.79;24.37;99482.44;5051980;28;20055;-49
2021/10/24 09:56:15;;;;;;;20.20;16.05;;;;;;;29.03;23.82;99492.22;5033995;28;20029;-49
2021/10/24 09:58:50;;;;;;;50.40;44.90;;;;;;;29.02;24.26;99485.25;5034006;28;20439;-49
2021/10/24 10:01:20;;;;;;;21.05;18.10;;;;;;;29.32;23.97;99489.19;5033905;28;20025;-49
2021/10/24 10:03:50;;;;;;;10.27;6.88;;;;;;;29.21;23.71;99485.91;5033893;28;20454;-49
2021/10/24 10:06:18;;;;;;;23.55;21.05;;;;;;;28.98;23.93;99478.84;5051724;28;20071;-49
2021/10/24 10:08:44;;;;;;;189.00;158.02;;;;;;;28.62;24.22;99484.97;5051700;28;20550;-50
2021/10/24 10:11:40;;;;;;;44.40;35.38;;;;;;;28.30;24.82;99486.63;5051596;28;20104;-50
2021/10/24 10:14:14;;;;;;;8.05;5.43;;;;;;;27.48;25.67;99482.56;5051828;28;20037;-49
2021/10/24 10:16:50;;;;;;;8.10;5.47;;;;;;;27.22;26.45;99480.22;5051590;28;20021;-48
2021/10/24 10:19:26;;;;;;;22.33;16.85;;;;;;;27.12;25.87;99488.44;5051692;28;20491;-49
2021/10/24 10:21:52;;;;;;;72.13;59.90;;;;;;;26.69;26.64;99477.69;5051605;28;20037;-49
2021/10/24 10:24:36;;;;;;;6.05;4.28;;;;;;;26.87;26.56;99479.59;5054261;28;20138;-49
2021/10/24 10:27:22;;;;;;;54.83;41.53;;;;;;;26.51;26.72;99476.50;5055778;28;20025;-49
2021/10/24 10:29:57;;;;;;;53.17;43.17;;;;;;;26.40;26.89;99475.81;5055388;28;20032;-49
2021/10/24 10:32:37;;;;;;;34.33;29.65;;;;;;;26.51;26.47;99473.81;5055546;28;20024;-49
2021/10/24 10:35:15;;;;;;;30.15;26.02;;;;;;;26.85;26.26;99475.59;5055645;28;20033;-49
2021/10/24 10:37:58;;;;;;;10.32;7.38;;;;;;;27.36;25.98;99469.53;5055564;28;20465;-49
2021/10/24 10:40:25;;;;;;;13.18;8.05;;;;;;;28.03;25.36;99457.69;5055516;28;20025;-49
2021/10/24 10:42:58;;;;;;;20.35;16.40;;;;;;;28.31;25.06;99453.13;5055468;28;20053;-48
2021/10/24 10:45:41;;;;;;;28.65;22.70;;;;;;;27.99;25.21;99457.50;5055371;28;20144;-49
2021/10/24 10:48:20;;;;;;;7.82;5.63;;;;;;;27.30;25.45;99458.00;5055404;28;20029;-49
2021/10/24 10:50:52;;;;;;;84.45;70.93;;;;;;;27.72;25.68;99449.31;5055026;28;20048;-49
2021/10/24 10:53:24;;;;;;;13.57;10.73;;;;;;;28.34;25.12;99451.75;5053991;28;20036;-49
2021/10/24 10:55:55;;;;;;;10.85;8.95;;;;;;;28.68;24.54;99451.34;5055166;28;20048;-47
2021/10/24 10:58:46;;;;;;;17.92;11.57;;;;;;;28.53;24.85;99440.84;5055175;28;20025;-49
2021/10/24 11:01:26;;;;;;;9.43;7.20;;;;;;;28.68;24.32;99437.84;5055147;28;20032;-49
2021/10/24 11:04:00;;;;;;;7.45;6.53;;;;;;;28.76;24.88;99431.72;5053780;28;20029;-50
2021/10/24 11:06:26;;;;;;;12.05;10.50;;;;;;;29.30;24.27;99428.41;5055132;28;20055;-49
2021/10/24 11:08:54;;;;;;;46.55;36.47;;;;;;;29.23;23.89;99428.84;5054954;28;20542;-48
2021/10/24 11:11:42;;;;;;;5.45;3.90;;;;;;;29.33;23.84;99431.28;5053497;28;20052;-50
2021/10/24 11:14:13;;;;;;;30.85;23.20;;;;;;;29.26;24.08;99426.31;5054856;28;20017;-49
2021/10/24 11:16:50;;;;;;;9.88;6.05;;;;;;;29.59;23.91;99423.34;5054746;28;20376;-50
2021/10/24 11:19:46;;;;;;;105.22;76.82;;;;;;;29.71;23.49;99419.31;5054840;28;20033;-50
2021/10/24 11:22:20;;;;;;;76.75;57.28;;;;;;;29.63;23.75;99420.84;5054319;28;20029;-50
2021/10/24 11:24:52;;;;;;;;;;;;;;;29.51;24.14;99416.00;5055076;28;20036;-49
2021/10/24 11:27:22;;;;;;;25.23;16.45;;;;;;;29.00;24.14;99417.97;5054625;28;19909;-50
2021/10/24 11:29:49;;;;;;;16.02;11.05;;;;;;;28.83;24.24;99413.19;5054414;28;20044;-49